Terminal Aerodrome Forecast
Issued by NWS

Home | Current Version | Previous Version | Text Only | Print | Product List | Glossary On
Versions: 1 2 3 4 5 6 7 8 9 10 11 12 13 14 15 16 17 18 19 20 21 22 23 24 25 26 27 28 29 30 31 32
631
FTUS46 KOTX 292347 CCA
TAFMWH
TAF COR
KMWH 292347Z 3000/3024 21007KT P6SM VCSH BKN040 OVC070
     FM300200 25005KT P6SM SCT080 BKN120
     FM300600 32006KT P6SM SCT100
     FM301700 35010KT P6SM SCT250=

USA.gov is the U.S. government's official web portal to all federal, state and local government web resources and services.